Usace Mobjack — AWEI — position and weather

sailwx.info

Track history (hours):
 
Tides and Currents Weather Stations Pressure Air Temp Water Temp Dewpoint Dewpoint Depression Visibility Wind Speed Wind Dir Waves Ship Positions

Usace Mobjack

Last reported at 2017-Nov-17 18:26 UTC. Time now 2017-Nov-18 21:19 UTC.
Position N 36°51' W 076°18'.

Length 20 m; draft 2.3 m.

Type: . MMSI: 366999273.

Date/timePositionNaut miles runAvg speedWind from/ knotsBaromVisibWave heightAir tempDewpointWater temp
2017-Nov-17 18:26N 36°51' W 076°18'0 0.0
2017-Nov-17 18:00N 36°51' W 076°18'0 0.0
2017-Nov-17 17:30N 36°51' W 076°18'0 0.0
2017-Nov-17 17:00N 36°51' W 076°18'0 0.0
2017-Nov-17 16:30N 36°51' W 076°18'0 0.0
2017-Nov-17 16:00N 36°51' W 076°18'0 0.0
2017-Nov-17 15:30N 36°51' W 076°18'0 0.0
2017-Nov-17 15:00N 36°51' W 076°18'0 0.0
2017-Nov-17 14:30N 36°51' W 076°18'4 2.6
2017-Nov-17 13:00N 36°55' W 076°20'4 8.0
2017-Nov-17 12:30N 36°51' W 076°18'0 0.0
2017-Nov-17 12:00N 36°51' W 076°18'0 0.0
2017-Nov-16 19:48N 36°51' W 076°18'2 7.1
2017-Nov-16 19:27N 36°53' W 076°20'0 0.2
2017-Nov-16 17:53N 36°53' W 076°20'2 5.7
2017-Nov-16 17:30N 36°51' W 076°18'0 0.0
2017-Nov-16 17:00N 36°51' W 076°18'0 0.0
2017-Nov-16 16:30N 36°51' W 076°18'0 0.0
2017-Nov-16 16:00N 36°51' W 076°18'0 0.0
2017-Nov-16 15:30N 36°51' W 076°18'0 0.0
2017-Nov-16 15:00N 36°51' W 076°18'0 0.0
2017-Nov-16 14:30N 36°51' W 076°18'0 0.0
2017-Nov-16 14:00N 36°51' W 076°18'0 0.0
2017-Nov-16 13:30N 36°51' W 076°18'0 0.0
2017-Nov-16 13:00N 36°51' W 076°18'0 0.0
2017-Nov-16 12:30N 36°51' W 076°18'0 0.0
2017-Nov-15 19:42N 36°51' W 076°18'1 3.5
2017-Nov-15 19:30N 36°51' W 076°18'1 2.8
2017-Nov-15 19:00N 36°50' W 076°16'1 2.7
2017-Nov-15 18:30N 36°50' W 076°15'2 4.5
2017-Nov-15 17:59N 36°51' W 076°18'0 0.2
2017-Nov-15 17:30N 36°51' W 076°18'2 3.8
2017-Nov-15 17:00N 36°49' W 076°18'1 2.6
2017-Nov-15 16:30N 36°47' W 076°18'3 6.3
2017-Nov-15 16:01N 36°51' W 076°17'1 2.3
2017-Nov-15 15:28N 36°51' W 076°18'0 0.0
2017-Nov-14 19:49N 36°51' W 076°18'1 3.7
2017-Nov-14 19:30N 36°52' W 076°20'1 0.3
2017-Nov-14 15:30N 36°53' W 076°20'2 4.2
2017-Nov-14 14:59N 36°51' W 076°18'0 0.0
2017-Nov-14 14:29N 36°51' W 076°18'0 0.0
2017-Nov-14 13:56N 36°51' W 076°18'0 0.0
2017-Nov-14 13:29N 36°51' W 076°18'0 0.0
2017-Nov-14 12:59N 36°51' W 076°18'0 0.0
2017-Nov-14 12:29N 36°51' W 076°18'  
2017-Nov-09 14:08N 36°51' W 076°18'0 0.0
2017-Nov-09 14:00N 36°51' W 076°18'3 5.5
2017-Nov-09 13:27N 36°54' W 076°21'0 0.5
2017-Nov-09 12:59N 36°54' W 076°21'0 0.3
2017-Nov-09 12:30N 36°54' W 076°21'  
Track history (hours):
 
Tides and Currents Weather Stations Pressure Air Temp Water Temp Dewpoint Dewpoint Depression Visibility Wind Speed Wind Dir Waves Ship Positions

Usace Mobjack

Last reported at 2017-Nov-17 18:26 UTC. Time now 2017-Nov-18 21:19 UTC.
Position N 36°51' W 076°18'.

Length 20 m; draft 2.3 m.

Type: . MMSI: 366999273.

Date/timePositionNaut miles runAvg speedWind from/ knotsBaromVisibWave heightAir tempDewpointWater temp
2017-Nov-17 18:26N 36°51' W 076°18'0 0.0
2017-Nov-17 18:00N 36°51' W 076°18'0 0.0
2017-Nov-17 17:30N 36°51' W 076°18'0 0.0
2017-Nov-17 17:00N 36°51' W 076°18'0 0.0
2017-Nov-17 16:30N 36°51' W 076°18'0 0.0
2017-Nov-17 16:00N 36°51' W 076°18'0 0.0
2017-Nov-17 15:30N 36°51' W 076°18'0 0.0
2017-Nov-17 15:00N 36°51' W 076°18'0 0.0
2017-Nov-17 14:30N 36°51' W 076°18'4 2.6
2017-Nov-17 13:00N 36°55' W 076°20'4 8.0
2017-Nov-17 12:30N 36°51' W 076°18'0 0.0
2017-Nov-17 12:00N 36°51' W 076°18'0 0.0
2017-Nov-16 19:48N 36°51' W 076°18'2 7.1
2017-Nov-16 19:27N 36°53' W 076°20'0 0.2
2017-Nov-16 17:53N 36°53' W 076°20'2 5.7
2017-Nov-16 17:30N 36°51' W 076°18'0 0.0
2017-Nov-16 17:00N 36°51' W 076°18'0 0.0
2017-Nov-16 16:30N 36°51' W 076°18'0 0.0
2017-Nov-16 16:00N 36°51' W 076°18'0 0.0
2017-Nov-16 15:30N 36°51' W 076°18'0 0.0
2017-Nov-16 15:00N 36°51' W 076°18'0 0.0
2017-Nov-16 14:30N 36°51' W 076°18'0 0.0
2017-Nov-16 14:00N 36°51' W 076°18'0 0.0
2017-Nov-16 13:30N 36°51' W 076°18'0 0.0
2017-Nov-16 13:00N 36°51' W 076°18'0 0.0
2017-Nov-16 12:30N 36°51' W 076°18'0 0.0
2017-Nov-15 19:42N 36°51' W 076°18'1 3.5
2017-Nov-15 19:30N 36°51' W 076°18'1 2.8
2017-Nov-15 19:00N 36°50' W 076°16'1 2.7
2017-Nov-15 18:30N 36°50' W 076°15'2 4.5
2017-Nov-15 17:59N 36°51' W 076°18'0 0.2
2017-Nov-15 17:30N 36°51' W 076°18'2 3.8
2017-Nov-15 17:00N 36°49' W 076°18'1 2.6
2017-Nov-15 16:30N 36°47' W 076°18'3 6.3
2017-Nov-15 16:01N 36°51' W 076°17'1 2.3
2017-Nov-15 15:28N 36°51' W 076°18'0 0.0
2017-Nov-14 19:49N 36°51' W 076°18'1 3.7
2017-Nov-14 19:30N 36°52' W 076°20'1 0.3
2017-Nov-14 15:30N 36°53' W 076°20'2 4.2
2017-Nov-14 14:59N 36°51' W 076°18'0 0.0
2017-Nov-14 14:29N 36°51' W 076°18'0 0.0
2017-Nov-14 13:56N 36°51' W 076°18'0 0.0
2017-Nov-14 13:29N 36°51' W 076°18'0 0.0
2017-Nov-14 12:59N 36°51' W 076°18'0 0.0
2017-Nov-14 12:29N 36°51' W 076°18'  
2017-Nov-09 14:08N 36°51' W 076°18'0 0.0
2017-Nov-09 14:00N 36°51' W 076°18'3 5.5
2017-Nov-09 13:27N 36°54' W 076°21'0 0.5
2017-Nov-09 12:59N 36°54' W 076°21'0 0.3
2017-Nov-09 12:30N 36°54' W 076°21'  

Dump ship's entire track history